EWG4672 ESSA-EDDL
Flight info
| Callsign | EWG4672 |
|---|---|
| Flight time | N/A |
| Altitude | 38000 |
| Route | NOSLI6G NOSLI N850 ABAMA DCT KEGAB DCT DENOL T851 HALME HALME1A |
| Aircraft | A319/M-SDE3FGHIRWY/LB1 |
Departure
| Time | N/A |
|---|---|
| Airport | Stockholm-Arlanda Airport (ESSA) |
Arrival
| Time | 2026-05-03 20:18 |
|---|---|
| Airport | Düsseldorf Airport (EDDL) |
| Time | Latitude | Longitude | Altitude | Speed | Heading |
|---|---|---|---|---|---|
| 2026-05-03 20:15 | 51.36426 | 6.93035 | 2441 ft | 133 kts | 233° |
| 2026-05-03 20:15 | 51.35868 | 6.91857 | 2261 ft | 133 kts | 233° |
| 2026-05-03 20:15 | 51.35311 | 6.90679 | 2080 ft | 133 kts | 233° |
| 2026-05-03 20:15 | 51.34753 | 6.89502 | 1895 ft | 133 kts | 233° |
| 2026-05-03 20:16 | 51.34199 | 6.88332 | 1723 ft | 132 kts | 232° |
| 2026-05-03 20:16 | 51.33645 | 6.87164 | 1539 ft | 131 kts | 232° |
| 2026-05-03 20:16 | 51.33094 | 6.86002 | 1359 ft | 131 kts | 232° |
| 2026-05-03 20:16 | 51.32546 | 6.84845 | 1203 ft | 130 kts | 232° |
| 2026-05-03 20:17 | 51.31997 | 6.83689 | 1019 ft | 131 kts | 231° |
| 2026-05-03 20:17 | 51.31455 | 6.82545 | 843 ft | 132 kts | 231° |
| 2026-05-03 20:17 | 51.30896 | 6.81364 | 639 ft | 134 kts | 230° |
| 2026-05-03 20:17 | 51.30334 | 6.80184 | 442 ft | 134 kts | 231° |
| 2026-05-03 20:18 | 51.29769 | 6.78993 | 265 ft | 135 kts | 231° |
| 2026-05-03 20:18 | 51.29207 | 6.77805 | 136 ft | 128 kts | 231° |
| 2026-05-03 20:18 | 51.28740 | 6.76832 | 128 ft | 87 kts | 233° |
| 2026-05-03 20:18 | 51.28478 | 6.76284 | 128 ft | 37 kts | 233° |
| 2026-05-03 20:19 | 51.28362 | 6.76065 | 127 ft | 26 kts | 213° |
| 2026-05-03 20:19 | 51.28236 | 6.76048 | 126 ft | 14 kts | 159° |
| 2026-05-03 20:19 | 51.28189 | 6.76096 | 129 ft | 5 kts | 127° |
| 2026-05-03 20:19 | 51.28184 | 6.76156 | 128 ft | 6 kts | 78° |
| 2026-05-03 20:20 | 51.28222 | 6.76221 | 128 ft | 10 kts | 46° |
| 2026-05-03 20:20 | 51.28275 | 6.76326 | 126 ft | 14 kts | 52° |
| 2026-05-03 20:20 | 51.28341 | 6.76466 | 124 ft | 17 kts | 53° |
| 2026-05-03 20:20 | 51.28402 | 6.76597 | 124 ft | 11 kts | 52° |
| 2026-05-03 20:21 | 51.28411 | 6.76675 | 125 ft | 8 kts | 126° |
| 2026-05-03 20:21 | 51.28356 | 6.76744 | 126 ft | 11 kts | 142° |
| 2026-05-03 20:21 | 51.28295 | 6.76820 | 127 ft | 11 kts | 142° |
| 2026-05-03 20:21 | 51.28239 | 6.76848 | 129 ft | 10 kts | 184° |
| 2026-05-03 20:22 | 51.28174 | 6.76837 | 129 ft | 8 kts | 187° |
| 2026-05-03 20:22 | 51.28149 | 6.76802 | 129 ft | 5 kts | 269° |
| 2026-05-03 20:22 | 51.28153 | 6.76760 | 128 ft | 3 kts | 277° |
| 2026-05-03 20:22 | 51.28155 | 6.76735 | 128 ft | 1 kts | 276° |
| 2026-05-03 20:23 | 51.28156 | 6.76720 | 128 ft | 0 kts | 275° |